createdAt,value
2023-04-26T00:03:34.627Z,64.58
2023-04-26T00:06:04.914Z,64.47
2023-04-26T00:08:33.393Z,64.55
2023-04-26T00:11:03.861Z,64.36
2023-04-26T00:13:32.153Z,63.85
2023-04-26T00:16:00.883Z,63.76
2023-04-26T00:18:29.202Z,63.88
2023-04-26T00:20:57.989Z,63.79
2023-04-26T00:23:27.427Z,63.83
2023-04-26T00:25:57.732Z,63.43
2023-04-26T00:28:25.934Z,63.38
2023-04-26T00:30:54.192Z,63.25
2023-04-26T00:33:22.483Z,62.86
2023-04-26T00:35:51.179Z,62.57
2023-04-26T00:38:19.981Z,62.58
2023-04-26T00:40:48.672Z,62.17
2023-04-26T00:43:19.102Z,61.37
2023-04-26T00:45:48.571Z,61.43
2023-04-26T00:48:18.742Z,61.64
2023-04-26T00:50:48.067Z,63.98
2023-04-26T00:53:18.190Z,66.10
2023-04-26T00:55:47.150Z,68.17
2023-04-26T00:58:16.492Z,69.33
2023-04-26T01:00:46.653Z,68.92
2023-04-26T01:03:15.601Z,69.92
2023-04-26T01:05:46.716Z,73.04
2023-04-26T01:08:16.203Z,74.21
2023-04-26T01:10:44.534Z,74.93
2023-04-26T01:13:14.793Z,76.56
2023-04-26T01:15:48.224Z,77.14
2023-04-26T01:18:17.269Z,76.68
2023-04-26T01:20:45.938Z,76.90
2023-04-26T01:23:15.785Z,78.14
2023-04-26T01:25:44.850Z,78.11
2023-04-26T01:28:14.344Z,77.99
2023-04-26T01:30:43.609Z,77.12
2023-04-26T01:33:11.960Z,76.72
2023-04-26T01:35:40.258Z,76.56
2023-04-26T01:38:09.367Z,76.79
2023-04-26T01:40:38.833Z,76.58
2023-04-26T01:43:09.291Z,76.56
2023-04-26T01:45:38.180Z,76.85
2023-04-26T01:48:08.368Z,77.08
2023-04-26T01:50:37.052Z,76.85
2023-04-26T01:53:06.542Z,76.82
2023-04-26T01:55:34.820Z,77.04
2023-04-26T01:58:03.880Z,76.79
2023-04-26T02:00:33.830Z,76.71
2023-04-26T02:03:02.490Z,76.66
2023-04-26T02:05:31.816Z,76.83
2023-04-26T02:08:01.449Z,76.65
2023-04-26T02:10:30.661Z,76.60
2023-04-26T02:12:59.408Z,76.48
2023-04-26T02:15:28.271Z,76.19
2023-04-26T02:17:57.067Z,75.95
2023-04-26T02:20:25.981Z,75.47
2023-04-26T02:22:55.280Z,75.30
2023-04-26T02:25:24.846Z,75.53
2023-04-26T02:27:54.062Z,75.93
2023-04-26T02:30:22.307Z,76.41
2023-04-26T02:32:55.311Z,77.43
2023-04-26T02:35:24.105Z,77.96
2023-04-26T02:37:53.290Z,78.20
2023-04-26T02:40:22.720Z,78.58
2023-04-26T02:42:51.985Z,79.05
2023-04-26T02:45:20.737Z,80.06
2023-04-26T02:47:49.593Z,80.94
2023-04-26T02:50:18.433Z,80.68
2023-04-26T02:52:48.189Z,80.33
2023-04-26T02:55:17.505Z,80.83
2023-04-26T02:57:46.337Z,81.50
2023-04-26T03:00:15.204Z,81.92
2023-04-26T03:02:44.989Z,81.52
2023-04-26T03:05:15.218Z,81.39
2023-04-26T03:07:43.798Z,81.14
2023-04-26T03:10:12.798Z,80.61
2023-04-26T03:12:41.015Z,80.87
2023-04-26T03:15:11.275Z,80.89
2023-04-26T03:17:40.529Z,80.80
2023-04-26T03:20:09.291Z,80.69
2023-04-26T03:22:39.374Z,80.63
2023-04-26T03:25:08.277Z,80.21
2023-04-26T03:27:36.856Z,79.95
2023-04-26T03:30:06.668Z,79.70
2023-04-26T03:32:36.918Z,79.56
2023-04-26T03:35:07.304Z,79.56
2023-04-26T03:37:36.270Z,79.37
2023-04-26T03:40:10.256Z,79.32
2023-04-26T03:42:38.985Z,79.35
2023-04-26T03:45:08.731Z,79.03
2023-04-26T03:47:37.912Z,78.83
2023-04-26T03:50:08.431Z,78.62
2023-04-26T03:52:37.188Z,78.45
2023-04-26T03:55:06.604Z,78.14
2023-04-26T03:57:35.310Z,77.99
2023-04-26T04:00:04.861Z,77.89
2023-04-26T04:02:34.506Z,77.71
2023-04-26T04:05:04.009Z,77.48
2023-04-26T04:07:32.310Z,77.28
2023-04-26T04:10:01.689Z,76.93
2023-04-26T04:12:31.105Z,76.36
2023-04-26T04:14:59.715Z,76.10
2023-04-26T04:17:28.834Z,76.16
2023-04-26T04:20:02.562Z,76.12
2023-04-26T04:22:34.411Z,76.09
2023-04-26T04:25:03.264Z,75.92
2023-04-26T04:27:32.272Z,75.64
2023-04-26T04:30:01.200Z,75.30
2023-04-26T04:32:30.176Z,74.92
2023-04-26T04:34:59.830Z,74.72
2023-04-26T04:37:29.228Z,74.62
2023-04-26T04:39:58.754Z,74.41
2023-04-26T04:42:28.527Z,74.09
2023-04-26T04:44:57.054Z,73.80
2023-04-26T04:47:25.773Z,73.47
2023-04-26T04:49:55.513Z,73.18
2023-04-26T04:52:24.226Z,73.05
2023-04-26T04:54:54.434Z,72.95
2023-04-26T04:57:23.014Z,72.71
2023-04-26T04:59:52.371Z,72.57
2023-04-26T05:02:21.386Z,72.31
2023-04-26T05:04:51.624Z,72.34
2023-04-26T05:07:20.888Z,72.21
2023-04-26T05:09:50.358Z,72.04
2023-04-26T05:12:19.071Z,71.96
2023-04-26T05:14:47.818Z,71.85
2023-04-26T05:17:16.047Z,71.82
2023-04-26T05:19:44.865Z,71.69
2023-04-26T05:22:13.216Z,71.61
2023-04-26T05:24:42.408Z,71.63
2023-04-26T05:27:12.121Z,71.60
2023-04-26T05:29:41.262Z,71.53
2023-04-26T05:32:11.249Z,71.77
2023-04-26T05:34:42.039Z,73.36
2023-04-26T05:37:10.877Z,72.66
2023-04-26T05:39:39.524Z,72.50
2023-04-26T05:42:08.933Z,72.99
2023-04-26T05:44:38.324Z,72.66
2023-04-26T05:47:08.943Z,72.47
2023-04-26T05:49:37.660Z,72.39
2023-04-26T05:52:06.285Z,72.36
2023-04-26T05:54:36.125Z,72.34
2023-04-26T05:57:04.907Z,72.39
2023-04-26T05:59:37.580Z,72.23
2023-04-26T06:02:05.930Z,71.90
2023-04-26T06:04:34.437Z,71.71
2023-04-26T06:07:03.037Z,71.42
2023-04-26T06:09:34.580Z,71.08
2023-04-26T06:12:03.748Z,70.78
2023-04-26T06:14:32.164Z,70.70
2023-04-26T06:17:00.678Z,70.44
2023-04-26T06:19:29.291Z,70.42
2023-04-26T06:21:57.586Z,70.18
2023-04-26T06:24:25.753Z,69.94
2023-04-26T06:26:54.266Z,69.72
2023-04-26T06:29:22.457Z,69.57
2023-04-26T06:31:50.670Z,69.34
2023-04-26T06:34:19.106Z,69.01
2023-04-26T06:36:47.532Z,68.75
2023-04-26T06:39:15.930Z,68.56
2023-04-26T06:41:44.474Z,68.49
2023-04-26T06:44:12.598Z,68.37
2023-04-26T06:46:40.839Z,68.20
2023-04-26T06:49:11.627Z,68.11
2023-04-26T06:51:39.780Z,68.01
2023-04-26T06:54:08.136Z,68.16
2023-04-26T06:56:36.375Z,68.08
2023-04-26T06:59:07.200Z,67.93
2023-04-26T07:01:36.165Z,68.01
2023-04-26T07:04:07.361Z,68.85
2023-04-26T07:06:37.837Z,69.72
2023-04-26T07:09:06.647Z,70.19
2023-04-26T07:11:35.056Z,69.95
2023-04-26T07:14:05.025Z,71.03
2023-04-26T07:16:33.161Z,70.85
2023-04-26T07:19:02.317Z,70.62
2023-04-26T07:21:31.093Z,70.16
2023-04-26T07:23:59.250Z,69.53
2023-04-26T07:26:27.577Z,69.30
2023-04-26T07:28:56.246Z,68.71
2023-04-26T07:31:24.499Z,68.16
2023-04-26T07:33:53.009Z,67.81
2023-04-26T07:36:24.565Z,67.12
2023-04-26T07:38:53.510Z,66.40
2023-04-26T07:41:21.742Z,65.76
2023-04-26T07:43:50.686Z,65.00
2023-04-26T07:46:19.328Z,64.18
2023-04-26T07:48:47.774Z,63.45
2023-04-26T07:51:16.307Z,63.44
2023-04-26T07:53:45.604Z,63.07
2023-04-26T07:56:13.765Z,62.90
2023-04-26T07:58:42.258Z,63.26
2023-04-26T08:01:10.384Z,63.33
2023-04-26T08:03:38.847Z,63.30
2023-04-26T08:06:07.487Z,63.22
2023-04-26T08:08:36.554Z,63.15
2023-04-26T08:11:08.355Z,63.02
2023-04-26T08:13:36.881Z,62.99
2023-04-26T08:16:06.427Z,62.92
2023-04-26T08:18:38.561Z,63.10
2023-04-26T08:21:06.845Z,62.91
2023-04-26T08:23:36.318Z,62.77
2023-04-26T08:26:05.209Z,63.90
2023-04-26T08:28:33.434Z,64.01
2023-04-26T08:31:02.660Z,63.56
2023-04-26T08:33:30.925Z,64.00
2023-04-26T08:36:00.234Z,63.71
2023-04-26T08:38:29.894Z,63.25
2023-04-26T08:41:01.067Z,63.33
2023-04-26T08:43:30.484Z,63.10
2023-04-26T08:46:00.095Z,62.81
2023-04-26T08:48:36.510Z,62.44
2023-04-26T08:51:06.857Z,62.12
2023-04-26T08:53:37.335Z,62.07
2023-04-26T08:56:07.911Z,61.80
2023-04-26T08:58:38.764Z,61.59
2023-04-26T09:01:09.346Z,61.41
2023-04-26T09:03:37.935Z,60.96
2023-04-26T09:06:07.904Z,60.57
2023-04-26T09:08:40.603Z,59.87
2023-04-26T09:11:10.547Z,59.71
2023-04-26T09:13:39.943Z,59.95
2023-04-26T09:16:09.542Z,60.11
2023-04-26T09:18:49.962Z,60.04
2023-04-26T09:21:18.684Z,59.58
2023-04-26T09:24:08.270Z,59.52
2023-04-26T09:26:36.496Z,59.04
2023-04-26T09:29:16.818Z,59.09
2023-04-26T09:31:50.233Z,59.17
2023-04-26T09:34:19.174Z,59.30
2023-04-26T09:36:55.500Z,59.43
2023-04-26T09:39:38.466Z,59.30
2023-04-26T09:42:08.258Z,59.10
2023-04-26T09:44:38.517Z,58.84
2023-04-26T09:47:09.526Z,58.67
2023-04-26T09:49:49.820Z,58.07
2023-04-26T09:52:19.949Z,58.02
2023-04-26T09:54:53.289Z,58.47
2023-04-26T09:57:22.568Z,58.50
2023-04-26T09:59:55.024Z,58.67
2023-04-26T10:02:26.763Z,58.41
2023-04-26T10:04:57.271Z,58.04
2023-04-26T10:07:27.451Z,58.80
2023-04-26T10:09:58.532Z,58.99
2023-04-26T10:12:29.975Z,59.35
2023-04-26T10:14:59.178Z,60.04
2023-04-26T10:17:28.114Z,60.62
2023-04-26T10:19:59.004Z,60.61
2023-04-26T10:22:32.538Z,61.54
2023-04-26T10:25:01.079Z,61.97
2023-04-26T10:27:49.015Z,62.02
2023-04-26T10:30:21.381Z,61.66
2023-04-26T10:32:55.854Z,61.63
2023-04-26T10:35:29.030Z,61.51
2023-04-26T10:38:00.792Z,61.43
2023-04-26T10:40:30.622Z,60.95
2023-04-26T10:43:17.497Z,61.02
2023-04-26T10:45:47.710Z,61.29
2023-04-26T10:48:23.382Z,60.81
2023-04-26T10:51:04.448Z,60.41
2023-04-26T10:53:53.968Z,60.32
2023-04-26T10:56:28.804Z,62.06
2023-04-26T11:02:01.332Z,64.35
2023-04-26T11:04:52.930Z,64.86
2023-04-26T11:07:37.480Z,64.58
2023-04-26T11:10:09.432Z,63.87
2023-04-26T11:12:42.340Z,63.58
2023-04-26T11:15:13.560Z,63.11
2023-04-26T11:17:42.458Z,62.83
2023-04-26T11:20:16.380Z,62.66
2023-04-26T11:22:45.329Z,62.20
2023-04-26T11:25:14.615Z,61.80
2023-04-26T11:27:43.738Z,61.37
2023-04-26T11:30:13.014Z,61.14
2023-04-26T11:32:42.385Z,61.32
2023-04-26T11:35:11.293Z,61.08
2023-04-26T11:37:39.770Z,60.95
2023-04-26T11:40:11.154Z,60.93
2023-04-26T11:42:39.447Z,60.66
2023-04-26T11:45:08.260Z,59.74
2023-04-26T11:47:37.702Z,59.37
2023-04-26T11:50:08.365Z,58.95
2023-04-26T11:52:38.319Z,58.61
2023-04-26T11:55:07.597Z,58.15
2023-04-26T11:57:35.897Z,58.24
2023-04-26T12:00:08.519Z,58.44
2023-04-26T12:02:37.833Z,59.27
2023-04-26T12:05:07.105Z,59.82
2023-04-26T12:07:36.770Z,60.03
2023-04-26T12:10:15.950Z,60.03
2023-04-26T12:12:47.838Z,59.72
2023-04-26T12:15:16.511Z,59.27
2023-04-26T12:18:08.081Z,59.55
2023-04-26T12:20:41.833Z,59.58
2023-04-26T12:23:17.585Z,59.13
2023-04-26T12:25:56.569Z,58.34
2023-04-26T12:28:25.047Z,57.86
2023-04-26T12:30:53.472Z,57.93
2023-04-26T12:33:21.817Z,57.76
2023-04-26T12:35:50.429Z,57.74
2023-04-26T12:38:19.135Z,57.79
2023-04-26T12:40:48.776Z,57.86
2023-04-26T12:43:17.115Z,57.62
2023-04-26T12:45:46.013Z,57.36
2023-04-26T12:48:16.260Z,57.57
2023-04-26T12:50:44.966Z,57.77
2023-04-26T12:53:14.468Z,58.19
2023-04-26T12:55:42.999Z,58.08
2023-04-26T12:58:11.745Z,58.17
2023-04-26T13:00:41.291Z,58.46
2023-04-26T13:03:10.943Z,58.42
2023-04-26T13:05:39.360Z,58.14
2023-04-26T13:08:07.535Z,58.16
2023-04-26T13:10:36.223Z,58.66
2023-04-26T13:13:05.115Z,59.12
2023-04-26T13:15:34.575Z,59.50
2023-04-26T13:18:03.923Z,59.65
2023-04-26T13:20:32.205Z,59.92
2023-04-26T13:23:01.278Z,59.75
2023-04-26T13:25:30.096Z,60.14
2023-04-26T13:27:58.777Z,60.44
2023-04-26T13:30:27.914Z,60.41
2023-04-26T13:32:59.456Z,59.91
2023-04-26T13:35:28.745Z,59.61
2023-04-26T13:37:57.627Z,59.65
2023-04-26T13:40:26.518Z,59.31
2023-04-26T13:42:55.757Z,59.42
2023-04-26T13:45:24.808Z,59.85
2023-04-26T13:47:54.149Z,59.66
2023-04-26T13:50:22.558Z,59.86
2023-04-26T13:52:52.577Z,60.22
2023-04-26T13:55:21.146Z,60.44
2023-04-26T13:57:50.512Z,60.53
2023-04-26T14:00:21.652Z,60.90
2023-04-26T14:02:50.205Z,61.22
2023-04-26T14:05:20.676Z,61.40
2023-04-26T14:07:49.586Z,61.45
2023-04-26T14:10:18.543Z,61.09
2023-04-26T14:12:47.254Z,60.68
2023-04-26T14:15:15.605Z,60.51
2023-04-26T14:17:45.596Z,60.51
2023-04-26T14:20:14.852Z,61.00
2023-04-26T14:22:44.129Z,61.31
2023-04-26T14:25:13.346Z,61.24
2023-04-26T14:27:41.457Z,61.02
2023-04-26T14:30:11.523Z,60.91
2023-04-26T14:32:39.842Z,60.94
2023-04-26T14:35:09.091Z,60.69
2023-04-26T14:37:37.958Z,60.04
2023-04-26T14:40:07.267Z,60.01
2023-04-26T14:42:35.381Z,60.34
2023-04-26T14:45:04.714Z,60.55
2023-04-26T14:47:34.142Z,60.64
2023-04-26T14:50:03.189Z,60.75
2023-04-26T14:52:34.706Z,61.24
2023-04-26T14:55:03.728Z,61.71
2023-04-26T14:57:32.872Z,62.14
2023-04-26T15:00:02.354Z,62.35
2023-04-26T15:02:31.001Z,62.38
2023-04-26T15:05:00.506Z,62.15
2023-04-26T15:07:32.449Z,61.76
2023-04-26T15:10:01.582Z,61.72
2023-04-26T15:12:31.587Z,61.80
2023-04-26T15:15:00.671Z,61.56
2023-04-26T15:17:33.040Z,61.53
2023-04-26T15:20:03.643Z,61.16
2023-04-26T15:22:34.865Z,60.76
2023-04-26T15:25:06.336Z,60.19
2023-04-26T15:27:36.147Z,60.13
2023-04-26T15:30:08.138Z,59.88
2023-04-26T15:32:36.391Z,59.21
2023-04-26T15:35:05.709Z,59.00
2023-04-26T15:37:37.245Z,58.96
2023-04-26T15:40:07.290Z,58.55
2023-04-26T15:42:36.939Z,58.56
2023-04-26T15:45:07.063Z,58.70
2023-04-26T15:47:35.376Z,58.90
2023-04-26T15:50:04.704Z,59.08
2023-04-26T15:52:39.298Z,59.22
2023-04-26T15:55:08.171Z,59.13
2023-04-26T15:57:36.801Z,59.43
2023-04-26T16:00:08.060Z,59.74
2023-04-26T16:02:38.463Z,59.93
2023-04-26T16:05:07.303Z,60.11
2023-04-26T16:07:37.113Z,60.57
2023-04-26T16:10:08.637Z,60.75
2023-04-26T16:12:37.351Z,60.69
2023-04-26T16:15:08.274Z,60.91
2023-04-26T16:17:37.430Z,61.16
2023-04-26T16:20:07.399Z,61.36
2023-04-26T16:22:37.099Z,61.64
2023-04-26T16:25:06.678Z,61.81
2023-04-26T16:27:35.599Z,61.69
2023-04-26T16:30:04.797Z,61.76
2023-04-26T16:32:33.675Z,62.11
2023-04-26T16:35:01.901Z,62.22
2023-04-26T16:37:31.438Z,62.30
2023-04-26T16:40:00.921Z,62.65
2023-04-26T16:42:30.597Z,63.31
2023-04-26T16:45:00.206Z,64.18
2023-04-26T16:47:28.392Z,64.57
2023-04-26T16:49:57.037Z,65.09
2023-04-26T16:52:25.306Z,65.33
2023-04-26T16:54:54.409Z,65.73
2023-04-26T16:57:22.617Z,65.85
2023-04-26T16:59:51.721Z,65.94
2023-04-26T17:02:20.244Z,66.09
2023-04-26T17:04:50.064Z,66.27
2023-04-26T17:07:18.933Z,66.37
2023-04-26T17:09:47.510Z,66.68
2023-04-26T17:12:16.293Z,66.80
2023-04-26T17:14:46.090Z,66.73
2023-04-26T17:17:16.082Z,67.03
2023-04-26T17:19:44.226Z,67.28
2023-04-26T17:22:13.554Z,67.56
2023-04-26T17:24:42.654Z,67.59
2023-04-26T17:27:10.771Z,67.79
2023-04-26T17:29:39.018Z,67.91
2023-04-26T17:32:07.265Z,68.02
2023-04-26T17:34:36.024Z,68.38
2023-04-26T17:37:04.409Z,68.61
2023-04-26T17:39:33.142Z,68.80
2023-04-26T17:42:01.420Z,68.84
2023-04-26T17:44:29.838Z,69.36
2023-04-26T17:46:58.178Z,69.58
2023-04-26T17:49:26.520Z,70.04
2023-04-26T17:51:55.601Z,70.27
2023-04-26T17:54:23.901Z,70.47
2023-04-26T17:56:52.354Z,70.46
2023-04-26T17:59:21.078Z,70.38
2023-04-26T18:01:50.411Z,70.24
2023-04-26T18:04:19.286Z,70.25
2023-04-26T18:06:49.673Z,70.49
2023-04-26T18:09:18.423Z,70.52
2023-04-26T18:11:47.993Z,70.72
2023-04-26T18:14:16.925Z,71.01
2023-04-26T18:16:45.224Z,71.10
2023-04-26T18:19:14.184Z,71.31
2023-04-26T18:21:42.694Z,71.64
2023-04-26T18:24:10.960Z,71.82
2023-04-26T18:26:41.062Z,72.01
2023-04-26T18:29:09.895Z,72.15
2023-04-26T18:31:39.532Z,72.31
2023-04-26T18:34:07.993Z,72.56
2023-04-26T18:36:36.792Z,72.89
2023-04-26T18:39:04.955Z,72.93
2023-04-26T18:41:33.092Z,73.02
2023-04-26T18:44:03.439Z,73.27
2023-04-26T18:46:31.784Z,73.39
2023-04-26T18:49:00.181Z,73.73
2023-04-26T18:51:28.645Z,73.83
2023-04-26T18:53:57.029Z,73.97
2023-04-26T18:56:25.323Z,73.97
2023-04-26T18:58:54.614Z,73.85
2023-04-26T19:01:22.922Z,73.84
2023-04-26T19:03:51.469Z,73.99
2023-04-26T19:06:20.502Z,74.30
2023-04-26T19:08:48.586Z,74.32
2023-04-26T19:11:17.219Z,74.51
2023-04-26T19:13:45.481Z,74.57
2023-04-26T19:16:14.028Z,74.44
2023-04-26T19:18:42.078Z,74.43
2023-04-26T19:21:11.329Z,74.55
2023-04-26T19:23:40.024Z,74.76
2023-04-26T19:26:12.157Z,74.94
2023-04-26T19:28:40.941Z,75.11
2023-04-26T19:31:09.994Z,75.02
2023-04-26T19:33:38.608Z,75.00
2023-04-26T19:36:09.098Z,74.82
2023-04-26T19:38:37.314Z,74.89
2023-04-26T19:41:05.762Z,75.09
2023-04-26T19:43:34.088Z,74.99
2023-04-26T19:46:10.419Z,74.92
2023-04-26T19:48:38.613Z,74.92
2023-04-26T19:51:06.941Z,75.18
2023-04-26T19:53:35.383Z,75.16
2023-04-26T19:56:03.718Z,75.05
2023-04-26T19:58:32.593Z,75.00
2023-04-26T20:01:01.463Z,74.88
2023-04-26T20:03:30.875Z,74.92
2023-04-26T20:05:59.691Z,75.01
2023-04-26T20:08:30.246Z,75.01
2023-04-26T20:11:03.212Z,74.92
2023-04-26T20:13:32.494Z,74.85
2023-04-26T20:16:00.928Z,74.85
2023-04-26T20:18:29.341Z,74.90
2023-04-26T20:20:57.821Z,74.98
2023-04-26T20:23:25.938Z,75.23
2023-04-26T20:25:54.141Z,75.52
2023-04-26T20:28:24.166Z,75.79
2023-04-26T20:30:52.446Z,75.94
2023-04-26T20:33:20.633Z,75.84
2023-04-26T20:35:49.267Z,76.14
2023-04-26T20:38:18.016Z,76.40
2023-04-26T20:40:47.104Z,76.59
2023-04-26T20:43:15.763Z,76.63
2023-04-26T20:45:43.966Z,76.50
2023-04-26T20:48:12.335Z,76.75
2023-04-26T20:50:41.209Z,76.68
2023-04-26T20:53:09.605Z,76.84
2023-04-26T20:55:37.919Z,76.96
2023-04-26T20:58:06.244Z,77.35
2023-04-26T21:00:36.086Z,77.57
2023-04-26T21:03:05.315Z,77.51
2023-04-26T21:05:33.946Z,77.65
2023-04-26T21:08:03.180Z,77.97
2023-04-26T21:10:31.936Z,78.08
2023-04-26T21:13:00.534Z,78.46
2023-04-26T21:15:29.562Z,78.65
2023-04-26T21:17:57.819Z,78.83
2023-04-26T21:20:26.268Z,79.04
2023-04-26T21:22:54.579Z,79.30
2023-04-26T21:25:23.097Z,79.35
2023-04-26T21:27:51.543Z,79.44
2023-04-26T21:30:22.450Z,79.30
2023-04-26T21:32:50.826Z,79.36
2023-04-26T21:35:20.399Z,79.26
2023-04-26T21:37:49.105Z,79.37
2023-04-26T21:40:18.087Z,79.67
2023-04-26T21:42:57.978Z,79.55
2023-04-26T21:45:33.179Z,79.66
2023-04-26T21:48:02.078Z,79.92
2023-04-26T21:50:30.388Z,79.70
2023-04-26T21:52:59.446Z,80.18
2023-04-26T21:55:28.228Z,80.56
2023-04-26T21:57:56.540Z,80.69
2023-04-26T22:00:24.974Z,80.82
2023-04-26T22:02:53.393Z,80.76
2023-04-26T22:05:21.878Z,80.96
2023-04-26T22:07:50.179Z,81.26
2023-04-26T22:10:18.698Z,81.44
2023-04-26T22:12:47.523Z,81.52
2023-04-26T22:15:16.544Z,81.66
2023-04-26T22:17:45.076Z,81.70
2023-04-26T22:20:13.895Z,81.84
2023-04-26T22:22:42.153Z,81.89
2023-04-26T22:25:10.973Z,81.68
2023-04-26T22:27:39.648Z,81.40
2023-04-26T22:30:22.962Z,81.49
2023-04-26T22:32:55.098Z,81.33
2023-04-26T22:35:26.955Z,81.08
2023-04-26T22:37:55.783Z,80.85
2023-04-26T22:40:24.579Z,80.68
2023-04-26T22:42:53.064Z,80.81
2023-04-26T22:45:23.393Z,80.56
2023-04-26T22:47:51.904Z,80.69
2023-04-26T22:50:21.379Z,80.97
2023-04-26T22:52:49.779Z,80.95
2023-04-26T22:55:18.320Z,81.06
2023-04-26T22:57:46.677Z,80.80
2023-04-26T23:00:15.720Z,80.54
2023-04-26T23:02:43.997Z,80.42
2023-04-26T23:05:13.386Z,80.54
2023-04-26T23:07:42.217Z,80.49
2023-04-26T23:10:11.084Z,80.74
2023-04-26T23:12:39.870Z,80.63
2023-04-26T23:15:09.743Z,80.79
2023-04-26T23:17:38.260Z,80.63
2023-04-26T23:20:07.803Z,80.42
2023-04-26T23:22:36.084Z,80.31
2023-04-26T23:25:04.457Z,80.53
2023-04-26T23:27:32.660Z,80.60
2023-04-26T23:30:01.057Z,80.58
2023-04-26T23:32:29.454Z,80.78
2023-04-26T23:34:57.801Z,80.80
2023-04-26T23:37:26.585Z,80.66
2023-04-26T23:39:55.200Z,80.38
2023-04-26T23:42:23.548Z,80.32
2023-04-26T23:44:51.725Z,80.41
2023-04-26T23:47:20.782Z,80.25
2023-04-26T23:49:49.471Z,80.07
2023-04-26T23:52:19.041Z,79.94
2023-04-26T23:54:47.846Z,80.06
2023-04-26T23:57:16.163Z,79.85
2023-04-26T23:59:45.008Z,79.74
